createdAt,value
2023-03-22T00:01:13.122Z,98425.75
2023-03-22T00:03:39.916Z,98422.69
2023-03-22T00:06:07.170Z,98422.88
2023-03-22T00:08:34.133Z,98418.91
2023-03-22T00:11:01.338Z,98417.41
2023-03-22T00:13:27.915Z,98421.84
2023-03-22T00:15:55.945Z,98408.16
2023-03-22T00:18:22.504Z,98414.50
2023-03-22T00:20:54.579Z,98416.59
2023-03-22T00:23:21.751Z,98416.25
2023-03-22T00:25:48.504Z,98402.56
2023-03-22T00:28:16.403Z,98401.94
2023-03-22T00:30:50.777Z,98405.66
2023-03-22T00:33:17.454Z,98399.06
2023-03-22T00:35:57.361Z,98402.75
2023-03-22T00:38:39.478Z,98400.41
2023-03-22T00:41:10.454Z,98390.25
2023-03-22T00:43:37.934Z,98391.09
2023-03-22T00:46:05.686Z,98395.56
2023-03-22T00:48:32.559Z,98387.84
2023-03-22T00:50:59.193Z,98385.41
2023-03-22T00:53:26.163Z,98387.44
2023-03-22T00:55:52.866Z,98380.66
2023-03-22T00:58:19.427Z,98385.16
2023-03-22T01:00:46.157Z,98384.63
2023-03-22T01:03:14.294Z,98383.28
2023-03-22T01:05:40.957Z,98379.19
2023-03-22T01:08:10.278Z,98371.59
2023-03-22T01:10:38.327Z,98373.59
2023-03-22T01:13:05.828Z,98382.56
2023-03-22T01:15:33.049Z,98380.94
2023-03-22T01:18:00.133Z,98369.28
2023-03-22T01:20:27.159Z,98371.13
2023-03-22T01:22:53.869Z,98376.56
2023-03-22T01:25:20.822Z,98365.50
2023-03-22T01:27:47.466Z,98365.75
2023-03-22T01:30:14.408Z,98366.88
2023-03-22T01:32:41.335Z,98368.72
2023-03-22T01:35:08.879Z,98366.25
2023-03-22T01:37:35.697Z,98357.88
2023-03-22T01:40:02.292Z,98362.47
2023-03-22T01:42:28.914Z,98355.63
2023-03-22T01:45:13.977Z,98352.31
2023-03-22T01:47:52.195Z,98356.63
2023-03-22T01:50:19.965Z,98358.47
2023-03-22T01:52:47.597Z,98350.56
2023-03-22T01:55:14.282Z,98347.72
2023-03-22T01:57:42.388Z,98347.72
2023-03-22T02:00:15.957Z,98344.53
2023-03-22T02:02:44.163Z,98340.50
2023-03-22T02:05:12.298Z,98342.09
2023-03-22T02:07:41.679Z,98343.16
2023-03-22T02:10:14.722Z,98342.44
2023-03-22T02:13:08.962Z,98340.09
2023-03-22T02:15:50.977Z,98335.13
2023-03-22T02:18:40.671Z,98341.38
2023-03-22T02:21:13.416Z,98337.91
2023-03-22T02:23:49.109Z,98330.13
2023-03-22T02:26:33.861Z,98330.13
2023-03-22T02:29:27.358Z,98317.38
2023-03-22T02:32:15.806Z,98325.22
2023-03-22T02:35:27.317Z,98318.31
2023-03-22T02:37:53.773Z,98322.03
2023-03-22T02:41:11.623Z,98320.50
2023-03-22T02:44:04.743Z,98319.78
2023-03-22T02:46:43.492Z,98319.03
2023-03-22T02:49:38.095Z,98310.56
2023-03-22T02:52:22.918Z,98309.84
2023-03-22T02:55:01.804Z,98305.91
2023-03-22T02:57:33.054Z,98305.91
2023-03-22T03:00:01.386Z,98305.28
2023-03-22T03:02:30.764Z,98299.31
2023-03-22T03:04:58.130Z,98303.50
2023-03-22T03:07:28.348Z,98298.28
2023-03-22T03:09:55.156Z,98290.88
2023-03-22T03:12:25.846Z,98285.41
2023-03-22T03:14:52.626Z,98282.56
2023-03-22T03:17:56.120Z,98280.44
2023-03-22T03:20:38.437Z,98278.44
2023-03-22T03:23:28.615Z,98275.69
2023-03-22T03:26:01.680Z,98280.53
2023-03-22T03:28:47.683Z,98274.28
2023-03-22T03:31:25.891Z,98272.59
2023-03-22T03:34:33.255Z,98270.44
2023-03-22T03:37:08.469Z,98267.84
2023-03-22T03:39:41.731Z,98278.50
2023-03-22T03:42:12.690Z,98275.66
2023-03-22T03:44:39.641Z,98272.13
2023-03-22T03:47:08.637Z,98263.22
2023-03-22T03:49:35.942Z,98265.84
2023-03-22T03:52:04.905Z,98267.47
2023-03-22T03:54:32.140Z,98270.06
2023-03-22T03:56:58.850Z,98269.31
2023-03-22T03:59:25.374Z,98273.81
2023-03-22T04:01:52.709Z,98279.03
2023-03-22T04:04:27.811Z,98277.28
2023-03-22T04:07:01.406Z,98280.72
2023-03-22T04:09:36.713Z,98285.03
2023-03-22T04:12:03.674Z,98293.72
2023-03-22T04:14:30.839Z,98285.88
2023-03-22T04:16:57.612Z,98283.44
2023-03-22T04:19:24.256Z,98287.41
2023-03-22T04:21:53.297Z,98296.25
2023-03-22T04:24:21.947Z,98292.22
2023-03-22T04:26:48.601Z,98300.66
2023-03-22T04:29:16.015Z,98288.53
2023-03-22T04:31:42.618Z,98292.75
2023-03-22T04:34:09.195Z,98289.13
2023-03-22T04:36:39.459Z,98280.31
2023-03-22T04:39:09.668Z,98291.50
2023-03-22T04:41:37.155Z,98282.75
2023-03-22T04:44:05.118Z,98286.06
2023-03-22T04:46:34.833Z,98287.66
2023-03-22T04:49:01.703Z,98277.91
2023-03-22T04:51:28.604Z,98280.34
2023-03-22T04:53:55.216Z,98288.88
2023-03-22T04:56:22.458Z,98280.13
2023-03-22T04:58:49.140Z,98277.44
2023-03-22T05:01:18.021Z,98281.66
2023-03-22T05:03:48.465Z,98267.59
2023-03-22T05:06:15.836Z,98269.28
2023-03-22T05:08:42.591Z,98267.53
2023-03-22T05:11:14.964Z,98259.59
2023-03-22T05:13:41.508Z,98256.97
2023-03-22T05:16:09.550Z,98260.44
2023-03-22T05:18:42.222Z,98245.84
2023-03-22T05:21:16.227Z,98258.66
2023-03-22T05:23:44.680Z,98243.22
2023-03-22T05:26:15.990Z,98253.53
2023-03-22T05:28:43.748Z,98247.44
2023-03-22T05:31:11.869Z,98257.16
2023-03-22T05:33:39.232Z,98250.28
2023-03-22T05:36:06.409Z,98260.69
2023-03-22T05:38:33.059Z,98270.03
2023-03-22T05:40:59.722Z,98263.81
2023-03-22T05:43:26.472Z,98268.13
2023-03-22T05:45:53.066Z,98265.19
2023-03-22T05:48:19.698Z,98276.50
2023-03-22T05:50:46.546Z,98274.53
2023-03-22T05:53:13.140Z,98270.88
2023-03-22T05:55:39.673Z,98276.75
2023-03-22T05:58:06.449Z,98278.22
2023-03-22T06:00:33.225Z,98283.38
2023-03-22T06:03:03.575Z,98285.78
2023-03-22T06:05:32.879Z,98288.06
2023-03-22T06:08:00.016Z,98284.34
2023-03-22T06:10:29.575Z,98292.81
2023-03-22T06:12:56.257Z,98288.22
2023-03-22T06:15:22.843Z,98293.41
2023-03-22T06:17:49.396Z,98293.97
2023-03-22T06:20:16.091Z,98290.38
2023-03-22T06:22:42.829Z,98297.13
2023-03-22T06:25:10.986Z,98293.41
2023-03-22T06:27:38.301Z,98297.38
2023-03-22T06:30:05.605Z,98292.75
2023-03-22T06:32:32.202Z,98282.19
2023-03-22T06:34:58.904Z,98291.31
2023-03-22T06:37:25.649Z,98292.56
2023-03-22T06:39:52.318Z,98298.22
2023-03-22T06:42:19.243Z,98290.09
2023-03-22T06:44:46.031Z,98291.19
2023-03-22T06:47:13.094Z,98297.59
2023-03-22T06:49:40.288Z,98297.91
2023-03-22T06:52:07.118Z,98292.88
2023-03-22T06:54:34.234Z,98285.25
2023-03-22T06:57:00.888Z,98280.13
2023-03-22T06:59:27.943Z,98287.44
2023-03-22T07:01:54.630Z,98286.63
2023-03-22T07:04:23.683Z,98284.47
2023-03-22T07:06:50.457Z,98285.50
2023-03-22T07:09:17.182Z,98292.72
2023-03-22T07:11:44.481Z,98292.97
2023-03-22T07:14:11.345Z,98288.22
2023-03-22T07:16:38.017Z,98287.94
2023-03-22T07:19:04.681Z,98291.22
2023-03-22T07:21:31.347Z,98279.19
2023-03-22T07:23:58.265Z,98295.88
2023-03-22T07:26:26.410Z,98289.69
2023-03-22T07:28:53.584Z,98289.50
2023-03-22T07:31:20.394Z,98287.91
2023-03-22T07:33:48.276Z,98290.13
2023-03-22T07:36:14.852Z,98287.63
2023-03-22T07:38:41.927Z,98286.69
2023-03-22T07:41:08.890Z,98286.31
2023-03-22T07:43:50.871Z,98295.69
2023-03-22T07:46:19.431Z,98276.94
2023-03-22T07:48:46.015Z,98284.53
2023-03-22T07:51:12.691Z,98284.22
2023-03-22T07:53:39.399Z,98281.81
2023-03-22T07:56:06.612Z,98272.91
2023-03-22T07:58:33.200Z,98283.84
2023-03-22T08:01:09.146Z,98282.03
2023-03-22T08:03:36.684Z,98281.09
2023-03-22T08:06:07.684Z,98291.38
2023-03-22T08:08:36.961Z,98288.09
2023-03-22T08:11:05.042Z,98282.19
2023-03-22T08:13:32.055Z,98277.59
2023-03-22T08:15:58.980Z,98267.44
2023-03-22T08:18:26.069Z,98266.50
2023-03-22T08:20:56.946Z,98259.91
2023-03-22T08:23:38.607Z,98270.34
2023-03-22T08:26:07.460Z,98256.56
2023-03-22T08:28:34.404Z,98251.53
2023-03-22T08:31:01.098Z,98251.19
2023-03-22T08:33:28.705Z,98249.31
2023-03-22T08:36:08.984Z,98244.66
2023-03-22T08:38:35.633Z,98244.88
2023-03-22T08:41:03.326Z,98245.84
2023-03-22T08:43:29.995Z,98251.28
2023-03-22T08:45:57.259Z,98239.28
2023-03-22T08:48:24.971Z,98237.16
2023-03-22T08:50:51.746Z,98229.41
2023-03-22T08:53:18.408Z,98237.63
2023-03-22T08:55:45.058Z,98234.06
2023-03-22T08:58:13.028Z,98242.47
2023-03-22T09:00:48.518Z,98233.13
2023-03-22T09:03:16.876Z,98234.38
2023-03-22T09:05:44.000Z,98229.59
2023-03-22T09:08:18.589Z,98231.66
2023-03-22T09:10:52.537Z,98236.59
2023-03-22T09:13:20.058Z,98235.56
2023-03-22T09:15:47.066Z,98229.09
2023-03-22T09:18:15.113Z,98226.94
2023-03-22T09:20:42.968Z,98226.84
2023-03-22T09:23:09.848Z,98228.47
2023-03-22T09:25:36.742Z,98228.22
2023-03-22T09:28:04.220Z,98228.34
2023-03-22T09:30:31.279Z,98215.47
2023-03-22T09:32:57.875Z,98216.38
2023-03-22T09:35:24.594Z,98216.00
2023-03-22T09:37:53.461Z,98219.47
2023-03-22T09:40:22.133Z,98218.91
2023-03-22T09:42:51.968Z,98209.94
2023-03-22T09:45:32.534Z,98207.91
2023-03-22T09:47:59.958Z,98211.00
2023-03-22T09:50:30.514Z,98214.41
2023-03-22T09:52:58.466Z,98208.31
2023-03-22T09:55:50.506Z,98195.88
2023-03-22T09:58:26.337Z,98208.63
2023-03-22T10:01:05.232Z,98203.69
2023-03-22T10:03:37.725Z,98208.63
2023-03-22T10:06:07.471Z,98206.09
2023-03-22T10:08:43.293Z,98206.59
2023-03-22T10:11:48.771Z,98193.28
2023-03-22T10:14:30.857Z,98194.72
2023-03-22T10:17:03.748Z,98182.38
2023-03-22T10:20:01.066Z,98182.38
2023-03-22T10:22:33.126Z,98186.00
2023-03-22T10:25:00.879Z,98187.97
2023-03-22T10:27:31.614Z,98192.63
2023-03-22T10:30:04.323Z,98180.19
2023-03-22T10:32:56.809Z,98185.94
2023-03-22T10:35:24.894Z,98190.47
2023-03-22T10:37:52.822Z,98192.53
2023-03-22T10:40:34.986Z,98195.59
2023-03-22T10:43:21.366Z,98200.88
2023-03-22T10:45:50.924Z,98190.97
2023-03-22T10:48:29.752Z,98203.84
2023-03-22T10:50:58.515Z,98196.56
2023-03-22T10:53:45.775Z,98194.34
2023-03-22T10:56:15.792Z,98195.28
2023-03-22T10:58:42.741Z,98189.50
2023-03-22T11:01:12.314Z,98185.97
2023-03-22T11:03:42.048Z,98182.03
2023-03-22T11:06:14.801Z,98176.94
2023-03-22T11:08:51.341Z,98182.13
2023-03-22T11:11:25.495Z,98181.50
2023-03-22T11:14:01.094Z,98183.59
2023-03-22T11:16:29.492Z,98199.00
2023-03-22T11:18:57.790Z,98194.50
2023-03-22T11:21:34.229Z,98183.94
2023-03-22T11:24:05.818Z,98191.31
2023-03-22T11:26:40.600Z,98177.56
2023-03-22T11:29:16.554Z,98183.00
2023-03-22T11:32:00.315Z,98182.59
2023-03-22T11:34:30.162Z,98182.50
2023-03-22T11:37:00.299Z,98180.44
2023-03-22T11:39:29.039Z,98168.50
2023-03-22T11:42:01.832Z,98168.75
2023-03-22T11:44:34.276Z,98174.66
2023-03-22T11:47:02.880Z,98175.63
2023-03-22T11:49:42.906Z,98178.88
2023-03-22T11:52:18.492Z,98173.59
2023-03-22T11:54:46.999Z,98180.63
2023-03-22T11:57:17.380Z,98173.00
2023-03-22T12:00:09.104Z,98167.59
2023-03-22T12:02:48.682Z,98175.88
2023-03-22T12:05:22.214Z,98169.75
2023-03-22T12:07:55.404Z,98167.47
2023-03-22T12:10:27.192Z,98168.28
2023-03-22T12:12:59.285Z,98160.13
2023-03-22T12:15:48.574Z,98163.16
2023-03-22T12:18:22.234Z,98166.19
2023-03-22T12:20:56.425Z,98152.53
2023-03-22T12:23:29.066Z,98153.28
2023-03-22T12:26:20.378Z,98157.16
2023-03-22T12:28:56.371Z,98160.31
2023-03-22T12:32:12.560Z,98166.06
2023-03-22T12:34:44.548Z,98159.78
2023-03-22T12:37:17.457Z,98153.03
2023-03-22T12:39:52.293Z,98154.81
2023-03-22T12:42:51.170Z,98164.75
2023-03-22T12:45:25.397Z,98149.09
2023-03-22T12:48:08.141Z,98150.31
2023-03-22T12:50:42.277Z,98143.06
2023-03-22T12:53:17.616Z,98139.63
2023-03-22T12:55:46.709Z,98137.78
2023-03-22T12:58:19.901Z,98129.22
2023-03-22T13:00:58.294Z,98125.09
2023-03-22T13:03:29.906Z,98113.88
2023-03-22T13:06:27.992Z,98115.78
2023-03-22T13:09:33.390Z,98107.75
2023-03-22T13:12:15.394Z,98108.94
2023-03-22T13:14:51.362Z,98114.69
2023-03-22T13:17:24.029Z,98111.59
2023-03-22T13:19:58.475Z,98098.72
2023-03-22T13:22:51.390Z,98098.00
2023-03-22T13:25:19.115Z,98100.41
2023-03-22T13:27:45.729Z,98087.34
2023-03-22T13:30:36.340Z,98085.72
2023-03-22T13:33:08.556Z,98095.03
2023-03-22T13:35:54.390Z,98089.81
2023-03-22T13:38:28.695Z,98080.09
2023-03-22T13:41:15.221Z,98074.97
2023-03-22T13:43:54.449Z,98073.19
2023-03-22T13:46:21.105Z,98058.06
2023-03-22T13:48:48.282Z,98052.91
2023-03-22T13:51:21.706Z,98056.69
2023-03-22T13:54:17.896Z,98061.63
2023-03-22T13:56:44.552Z,98049.94
2023-03-22T13:59:33.795Z,98042.50
2023-03-22T14:02:22.235Z,98036.00
2023-03-22T14:04:53.236Z,98038.38
2023-03-22T14:07:26.310Z,98042.34
2023-03-22T14:10:01.405Z,98030.69
2023-03-22T14:13:00.305Z,98033.16
2023-03-22T14:15:32.310Z,98029.63
2023-03-22T14:18:16.092Z,98034.09
2023-03-22T14:20:44.420Z,98033.84
